Time;durP1;ratioP1;P1;durP2;ratioP2;P2;SDS_P1;SDS_P2;PMS_P1;PMS_P2;Temp;Humidity;BMP_temperature;BMP_pressure;BME280_temperature;BME280_humidity;BME280_pressure;Samples;Min_cycle;Max_cycle;Signal;HPM_P1;HPM_P2
2022/12/11 00:00:06;;;;;;;35.28;15.57;;;2.30;88.10;;;;;;5034381;28;20488;-65
2022/12/11 00:02:32;;;;;;;41.65;17.27;;;2.30;88.30;;;;;;5035984;28;20079;-64
2022/12/11 00:04:58;;;;;;;40.03;17.33;;;2.40;88.20;;;;;;5044336;28;20017;-64
2022/12/11 00:07:24;;;;;;;41.72;15.93;;;2.40;88.20;;;;;;5048586;28;20044;-65
2022/12/11 00:09:49;;;;;;;46.72;16.33;;;2.40;88.30;;;;;;5040113;28;20024;-65
2022/12/11 00:12:15;;;;;;;43.38;17.55;;;2.50;88.30;;;;;;5044884;28;20038;-64
2022/12/11 00:14:41;;;;;;;76.03;23.00;;;2.40;88.80;;;;;;5049621;28;20500;-64
2022/12/11 00:17:07;;;;;;;70.13;18.90;;;2.40;88.10;;;;;;5049239;28;20037;-64
2022/12/11 00:19:32;;;;;;;65.90;19.70;;;2.40;88.30;;;;;;5044356;28;20590;-65
2022/12/11 00:21:58;;;;;;;53.33;16.80;;;2.30;88.30;;;;;;5048528;28;20093;-66
2022/12/11 00:24:23;;;;;;;57.47;18.92;;;2.40;88.40;;;;;;5052552;28;20031;-65
2022/12/11 00:26:49;;;;;;;70.18;20.90;;;2.40;88.40;;;;;;5048360;28;20147;-65
2022/12/11 00:29:15;;;;;;;100.43;23.77;;;2.40;88.40;;;;;;5044222;28;20504;-65
2022/12/11 00:31:41;;;;;;;50.17;18.33;;;2.30;88.40;;;;;;5046129;28;20388;-65
2022/12/11 00:34:07;;;;;;;47.50;18.45;;;2.30;88.70;;;;;;5049335;28;20100;-65
2022/12/11 00:36:34;;;;;;;46.58;17.40;;;2.30;88.70;;;;;;5045569;28;20444;-66
2022/12/11 00:39:01;;;;;;;44.70;17.17;;;2.30;88.80;;;;;;5045747;28;20040;-65
2022/12/11 00:41:27;;;;;;;57.58;18.60;;;2.40;88.90;;;;;;5040446;28;20137;-65
2022/12/11 00:43:53;;;;;;;44.28;17.05;;;2.40;88.80;;;;;;5043911;28;20100;-65
2022/12/11 00:46:18;;;;;;;42.33;16.40;;;2.50;88.90;;;;;;5048522;28;20105;-65
2022/12/11 00:48:45;;;;;;;46.75;17.85;;;2.50;88.80;;;;;;5038886;28;20033;-64
2022/12/11 00:51:11;;;;;;;37.85;15.07;;;2.50;88.70;;;;;;5045459;28;20018;-64
2022/12/11 00:53:38;;;;;;;41.88;16.52;;;2.50;88.70;;;;;;5045267;28;20029;-66
2022/12/11 00:56:16;;;;;;;34.78;15.13;;;2.50;88.70;;;;;;5044967;28;20017;-65
2022/12/11 00:58:42;;;;;;;43.88;16.42;;;2.50;88.80;;;;;;5046020;28;20048;-65
2022/12/11 01:01:11;;;;;;;40.42;16.48;;;2.50;88.70;;;;;;5042521;28;20104;-66
2022/12/11 01:03:37;;;;;;;37.60;13.90;;;2.50;88.70;;;;;;5047789;28;20029;-65
2022/12/11 01:06:04;;;;;;;42.42;16.35;;;2.60;88.80;;;;;;5048697;28;20025;-66
2022/12/11 01:08:31;;;;;;;36.58;15.25;;;2.60;88.60;;;;;;5059481;28;20403;-64
2022/12/11 01:11:02;;;;;;;38.33;15.20;;;2.60;88.50;;;;;;5040433;28;20021;-64
2022/12/11 01:13:28;;;;;;;43.42;15.73;;;2.60;88.50;;;;;;5042786;28;20035;-65
2022/12/11 01:15:53;;;;;;;49.83;18.58;;;2.70;88.50;;;;;;5051188;28;20025;-65
2022/12/11 01:18:19;;;;;;;52.17;19.58;;;2.60;88.40;;;;;;5045574;28;20033;-65
2022/12/11 01:20:44;;;;;;;41.35;16.50;;;2.50;88.30;;;;;;5042521;28;20021;-65
2022/12/11 01:23:11;;;;;;;37.30;14.80;;;2.50;88.60;;;;;;5047426;28;20369;-65
2022/12/11 01:25:37;;;;;;;42.38;17.80;;;2.60;88.60;;;;;;5044349;28;20016;-65
2022/12/11 01:28:04;;;;;;;36.50;15.93;;;2.60;88.50;;;;;;5043310;28;20514;-65
2022/12/11 01:30:29;;;;;;;38.33;15.82;;;2.60;88.50;;;;;;5044014;28;20118;-66
2022/12/11 01:32:55;;;;;;;34.22;13.32;;;2.60;88.60;;;;;;5050464;28;20513;-65
2022/12/11 01:35:21;;;;;;;35.58;15.48;;;2.60;88.50;;;;;;5044430;28;20040;-65
2022/12/11 01:37:47;;;;;;;47.42;18.42;;;2.70;88.60;;;;;;5043145;28;20480;-65
2022/12/11 01:40:16;;;;;;;43.30;18.20;;;2.70;88.40;;;;;;5047280;28;20030;-65
2022/12/11 01:42:42;;;;;;;43.75;16.33;;;2.60;88.50;;;;;;5040561;28;20021;-65
2022/12/11 01:45:29;;;;;;;44.33;18.20;;;2.70;88.60;;;;;;5046389;28;20032;-65
2022/12/11 01:48:09;;;;;;;45.80;18.67;;;2.70;88.50;;;;;;5045219;28;20108;-65
2022/12/11 01:50:42;;;;;;;50.28;20.20;;;2.60;88.50;;;;;;5050242;28;20108;-66
2022/12/11 01:53:12;;;;;;;45.53;17.67;;;2.60;88.60;;;;;;5042799;28;20082;-66
2022/12/11 01:55:39;;;;;;;44.90;18.42;;;2.50;88.70;;;;;;5036819;28;20040;-65
2022/12/11 01:58:05;;;;;;;43.50;16.88;;;2.60;88.70;;;;;;5043361;28;20480;-65
2022/12/11 02:00:31;;;;;;;38.78;15.48;;;2.60;88.80;;;;;;5044022;28;20529;-64
2022/12/11 02:02:57;;;;;;;55.92;17.85;;;2.60;88.80;;;;;;5044715;28;20029;-65
2022/12/11 02:05:22;;;;;;;41.63;16.80;;;2.70;88.70;;;;;;5048041;28;20029;-65
2022/12/11 02:07:55;;;;;;;44.50;16.55;;;2.60;88.60;;;;;;5046325;28;20100;-64
2022/12/11 02:10:24;;;;;;;51.42;19.58;;;2.70;88.60;;;;;;5043689;28;20496;-65
2022/12/11 02:12:57;;;;;;;50.67;17.65;;;2.60;88.60;;;;;;5042203;28;20537;-65
2022/12/11 02:15:30;;;;;;;;;;;2.60;88.60;;;;;;5046819;28;20072;-64
2022/12/11 02:18:01;;;;;;;57.85;20.73;;;2.50;88.60;;;;;;5047147;28;20578;-66
2022/12/11 02:20:36;;;;;;;36.45;15.27;;;2.50;88.80;;;;;;5040823;28;20049;-66
2022/12/11 02:23:11;;;;;;;61.35;19.73;;;2.50;89.00;;;;;;5039568;28;20025;-66
2022/12/11 02:26:05;;;;;;;33.65;13.75;;;2.50;88.90;;;;;;5042790;28;20034;-66
2022/12/11 02:28:36;;;;;;;66.47;17.90;;;2.50;89.00;;;;;;5041942;28;20068;-65
2022/12/11 02:31:24;;;;;;;56.88;17.20;;;2.60;88.90;;;;;;5038161;28;20391;-66
2022/12/11 02:34:22;;;;;;;49.50;15.55;;;2.60;89.00;;;;;;5042056;28;21416;-66
2022/12/11 02:36:53;;;;;;;52.92;15.38;;;2.60;89.00;;;;;;5031971;28;20033;-65
2022/12/11 02:39:21;;;;;;;58.80;17.58;;;2.60;88.90;;;;;;5048448;28;20185;-65
2022/12/11 02:41:49;;;;;;;37.75;13.82;;;2.60;88.90;;;;;;5047395;28;20436;-65
2022/12/11 02:44:28;;;;;;;55.65;14.43;;;2.60;89.00;;;;;;5041635;28;20094;-66
2022/12/11 02:46:54;;;;;;;137.45;19.27;;;2.70;89.10;;;;;;5041936;28;20025;-66
2022/12/11 02:49:22;;;;;;;50.53;14.55;;;2.70;88.90;;;;;;5037321;28;20038;-65
2022/12/11 02:51:48;;;;;;;38.75;14.93;;;2.70;88.90;;;;;;5042770;28;20096;-64
2022/12/11 02:54:27;;;;;;;47.92;13.68;;;2.70;88.90;;;;;;5041315;28;20402;-65
2022/12/11 02:57:10;;;;;;;145.52;19.65;;;2.80;88.90;;;;;;5042829;28;20025;-64
2022/12/11 02:59:39;;;;;;;42.03;16.30;;;2.80;88.70;;;;;;5041386;28;20491;-65
2022/12/11 03:02:05;;;;;;;81.55;15.35;;;2.70;88.80;;;;;;5047367;28;20025;-65
2022/12/11 03:04:33;;;;;;;83.00;19.05;;;2.70;88.80;;;;;;5044388;28;20025;-64
2022/12/11 03:07:10;;;;;;;110.28;20.65;;;2.70;88.70;;;;;;5037725;28;20056;-65
2022/12/11 03:09:40;;;;;;;183.27;20.58;;;2.60;88.80;;;;;;5043183;28;20096;-65
2022/12/11 03:12:10;;;;;;;57.50;14.43;;;2.60;89.00;;;;;;5046299;28;20021;-65
2022/12/11 03:14:38;;;;;;;39.00;13.30;;;2.60;89.00;;;;;;5043194;28;20072;-64
2022/12/11 03:17:16;;;;;;;67.40;15.95;;;2.60;89.00;;;;;;5038364;28;20024;-64
2022/12/11 03:20:09;;;;;;;82.85;16.55;;;2.60;89.00;;;;;;5041686;28;20029;-65
2022/12/11 03:22:43;;;;;;;75.65;20.30;;;2.60;89.10;;;;;;5022679;28;20508;-65
2022/12/11 03:25:15;;;;;;;98.47;17.52;;;2.60;89.00;;;;;;5038420;28;20021;-66
2022/12/11 03:27:51;;;;;;;59.03;16.25;;;2.60;89.30;;;;;;5044670;28;20123;-65
2022/12/11 03:30:19;;;;;;;46.28;15.18;;;2.60;89.40;;;;;;5041871;28;20033;-66
2022/12/11 03:32:54;;;;;;;80.88;19.17;;;2.60;89.30;;;;;;5047780;28;20024;-65
2022/12/11 03:35:38;;;;;;;70.57;17.40;;;2.60;89.30;;;;;;5046964;28;20024;-66
2022/12/11 03:38:10;;;;;;;43.72;16.40;;;2.60;89.30;;;;;;5038098;28;20561;-65
2022/12/11 03:40:38;;;;;;;35.50;13.30;;;2.70;89.30;;;;;;5037589;28;20107;-65
2022/12/11 03:43:05;;;;;;;37.78;15.57;;;2.80;89.40;;;;;;5047995;28;20049;-65
2022/12/11 03:45:32;;;;;;;32.75;13.32;;;2.80;89.30;;;;;;5050374;28;20029;-65
2022/12/11 03:47:59;;;;;;;48.33;18.40;;;2.80;89.20;;;;;;5045952;28;20514;-66
2022/12/11 03:50:27;;;;;;;40.30;16.77;;;2.80;89.10;;;;;;5045948;28;20083;-66
2022/12/11 03:52:54;;;;;;;38.60;15.20;;;2.80;89.20;;;;;;5046612;28;20021;-67
2022/12/11 03:55:21;;;;;;;38.58;15.68;;;2.90;89.20;;;;;;5051407;28;20029;-66
2022/12/11 03:57:48;;;;;;;39.95;15.10;;;2.90;89.40;;;;;;5043495;28;20091;-66
2022/12/11 04:00:18;;;;;;;34.13;13.52;;;2.90;89.10;;;;;;5049052;28;20017;-65
2022/12/11 04:02:44;;;;;;;39.35;15.75;;;3.00;89.00;;;;;;5048652;28;20029;-65
2022/12/11 04:05:10;;;;;;;48.70;18.92;;;3.00;89.50;;;;;;5048283;28;20100;-64
2022/12/11 04:07:36;;;;;;;48.53;18.05;;;3.00;88.90;;;;;;5046856;28;20038;-65
2022/12/11 04:10:04;;;;;;;50.13;17.58;;;3.00;88.90;;;;;;5048427;28;20029;-65
2022/12/11 04:12:30;;;;;;;47.95;18.42;;;2.90;88.90;;;;;;5048626;28;20025;-65
2022/12/11 04:15:01;;;;;;;42.80;18.00;;;3.00;88.90;;;;;;5051982;28;20029;-65
2022/12/11 04:25:54;;;;;;;40.72;16.27;;;3.10;88.80;;;;;;5043340;28;20045;-65
2022/12/11 04:28:19;;;;;;;38.50;16.00;;;3.10;88.60;;;;;;5040430;28;20030;-64
2022/12/11 04:30:48;;;;;;;38.03;15.73;;;3.10;88.60;;;;;;5048615;28;20057;-64
2022/12/11 04:33:14;;;;;;;41.00;17.00;;;3.10;88.60;;;;;;5046155;28;20516;-65
2022/12/11 04:35:40;;;;;;;46.15;17.77;;;3.10;88.50;;;;;;5052523;28;20017;-65
2022/12/11 04:38:06;;;;;;;43.38;17.50;;;3.10;88.50;;;;;;5043973;28;20035;-65
2022/12/11 04:40:32;;;;;;;44.40;17.67;;;3.20;88.50;;;;;;5040142;28;20104;-66
2022/12/11 04:42:58;;;;;;;53.50;19.75;;;3.10;88.40;;;;;;5044299;28;20136;-64
2022/12/11 04:45:24;;;;;;;39.53;16.30;;;3.10;88.40;;;;;;5051555;28;20025;-65
2022/12/11 04:47:50;;;;;;;45.67;17.98;;;3.10;88.40;;;;;;5038146;28;20033;-65
2022/12/11 04:50:16;;;;;;;40.10;17.10;;;3.10;88.30;;;;;;5050118;28;20037;-65
2022/12/11 04:52:42;;;;;;;42.85;16.70;;;3.20;88.40;;;;;;5049505;28;20025;-63
2022/12/11 04:55:09;;;;;;;39.92;15.75;;;3.20;88.30;;;;;;5045727;28;20475;-64
2022/12/11 04:57:35;;;;;;;37.00;15.48;;;3.20;88.20;;;;;;5043660;28;20020;-66
2022/12/11 05:00:03;;;;;;;41.42;15.70;;;3.20;88.10;;;;;;5046946;28;20025;-66
2022/12/11 05:02:29;;;;;;;49.42;20.95;;;3.30;88.20;;;;;;5048691;28;20469;-66
2022/12/11 05:04:54;;;;;;;52.85;23.02;;;3.20;87.90;;;;;;5045733;28;20616;-65
2022/12/11 05:07:20;;;;;;;41.15;18.30;;;3.10;87.80;;;;;;5049616;28;20052;-65
2022/12/11 05:09:46;;;;;;;44.50;17.05;;;3.10;88.00;;;;;;5049016;28;20020;-65
2022/12/11 05:12:11;;;;;;;41.47;17.73;;;3.20;88.20;;;;;;5046057;28;20441;-65
2022/12/11 05:14:37;;;;;;;42.53;18.13;;;3.20;87.90;;;;;;5039350;28;20028;-64
2022/12/11 05:17:02;;;;;;;36.30;16.98;;;3.20;87.90;;;;;;5036800;28;20476;-65
2022/12/11 05:19:28;;;;;;;34.88;16.50;;;3.20;87.80;;;;;;5048412;28;20441;-66
2022/12/11 05:21:54;;;;;;;37.72;18.23;;;3.20;87.70;;;;;;5043893;28;20048;-66
2022/12/11 05:24:20;;;;;;;36.33;17.38;;;3.20;87.70;;;;;;5037909;28;20484;-66
2022/12/11 05:26:46;;;;;;;36.75;16.98;;;3.30;87.70;;;;;;5047686;28;20040;-65
2022/12/11 05:29:12;;;;;;;31.20;15.05;;;3.30;87.80;;;;;;5047606;28;20519;-65
2022/12/11 05:31:37;;;;;;;37.70;18.20;;;3.30;87.80;;;;;;5045819;28;20029;-65
2022/12/11 05:34:03;;;;;;;39.00;18.60;;;3.20;87.70;;;;;;5048959;28;20044;-66
2022/12/11 05:36:31;;;;;;;41.38;19.52;;;3.20;87.80;;;;;;5048511;28;20021;-65
2022/12/11 05:38:58;;;;;;;39.25;17.52;;;3.20;87.70;;;;;;5039060;28;20053;-66
2022/12/11 05:41:25;;;;;;;40.35;18.85;;;3.20;87.80;;;;;;5051396;28;20426;-65
2022/12/11 05:43:51;;;;;;;35.60;16.40;;;3.20;87.70;;;;;;5037595;28;20025;-65
2022/12/11 05:46:21;;;;;;;34.03;15.77;;;3.20;87.70;;;;;;5043178;28;20104;-65
2022/12/11 05:48:49;;;;;;;36.60;17.13;;;3.30;87.60;;;;;;5043766;28;20373;-64
2022/12/11 05:51:17;;;;;;;45.20;21.75;;;3.30;87.40;;;;;;5049301;28;20430;-65
2022/12/11 05:53:44;;;;;;;39.33;20.52;;;3.20;87.20;;;;;;5040989;28;20082;-65
2022/12/11 05:56:11;;;;;;;36.65;18.35;;;3.20;87.20;;;;;;5050063;28;20531;-65
2022/12/11 05:58:40;;;;;;;41.05;19.42;;;3.20;87.30;;;;;;5045854;28;20108;-65
2022/12/11 06:01:19;;;;;;;33.60;17.45;;;3.20;87.30;;;;;;5041786;28;20557;-64
2022/12/11 06:03:45;;;;;;;38.28;19.48;;;3.20;87.30;;;;;;5038623;28;20463;-65
2022/12/11 06:06:10;;;;;;;37.05;17.83;;;3.20;87.20;;;;;;5048204;28;20071;-64
2022/12/11 06:08:37;;;;;;;33.92;17.35;;;3.20;87.30;;;;;;5034406;28;20077;-63
2022/12/11 06:11:03;;;;;;;39.83;20.70;;;3.20;87.30;;;;;;5046877;28;20142;-64
2022/12/11 06:13:29;;;;;;;36.88;19.02;;;3.20;87.10;;;;;;5043852;28;20032;-65
2022/12/11 06:15:58;;;;;;;36.72;18.67;;;3.20;87.20;;;;;;5046930;28;20025;-65
2022/12/11 06:18:24;;;;;;;32.58;17.42;;;3.10;87.60;;;;;;5044191;28;20029;-65
2022/12/11 06:20:49;;;;;;;34.95;18.38;;;3.10;86.90;;;;;;5045226;28;20032;-65
2022/12/11 06:23:15;;;;;;;42.72;22.23;;;3.10;86.90;;;;;;5041591;28;20033;-65
2022/12/11 06:25:40;;;;;;;37.88;19.70;;;3.00;86.80;;;;;;5044816;28;20175;-64
2022/12/11 06:28:06;;;;;;;40.42;19.98;;;3.00;86.90;;;;;;5040121;28;20055;-64
2022/12/11 06:30:32;;;;;;;40.72;19.83;;;3.00;86.80;;;;;;5043729;28;20032;-64
2022/12/11 06:32:58;;;;;;;33.50;17.42;;;2.90;86.70;;;;;;5050204;28;20017;-64
2022/12/11 06:35:24;;;;;;;31.73;16.95;;;2.90;87.40;;;;;;5046376;28;20160;-64
2022/12/11 06:37:50;;;;;;;27.48;15.07;;;3.00;86.80;;;;;;5038535;28;20053;-65
2022/12/11 06:40:15;;;;;;;32.35;16.27;;;3.00;86.80;;;;;;5048087;28;20476;-65
2022/12/11 06:42:41;;;;;;;31.40;17.23;;;3.10;86.80;;;;;;5043582;28;20029;-64
2022/12/11 06:45:08;;;;;;;32.95;18.02;;;3.10;86.70;;;;;;5048775;28;20018;-64
2022/12/11 06:47:33;;;;;;;33.95;18.58;;;3.10;86.50;;;;;;5039719;28;20033;-65
2022/12/11 06:49:59;;;;;;;33.35;17.52;;;3.00;86.60;;;;;;5046934;28;20017;-65
2022/12/11 06:52:26;;;;;;;29.23;16.40;;;3.00;86.70;;;;;;5042918;28;20104;-65
2022/12/11 06:54:52;;;;;;;30.80;17.00;;;3.00;86.80;;;;;;5044634;28;20073;-64
2022/12/11 06:57:18;;;;;;;35.55;19.17;;;3.10;86.80;;;;;;5041727;28;20444;-65
2022/12/11 06:59:44;;;;;;;35.53;18.67;;;3.10;86.80;;;;;;5042484;28;20156;-66
2022/12/11 07:02:13;;;;;;;45.38;23.98;;;3.10;86.80;;;;;;5045144;28;20020;-65
2022/12/11 07:04:39;;;;;;;38.10;21.48;;;3.00;86.30;;;;;;5048408;28;20029;-65
2022/12/11 07:07:05;;;;;;;34.72;19.55;;;2.80;86.10;;;;;;5045265;28;20131;-65
2022/12/11 07:09:30;;;;;;;30.55;16.83;;;2.70;86.20;;;;;;5046635;28;20029;-65
2022/12/11 07:11:57;;;;;;;26.10;14.77;;;2.70;86.30;;;;;;5036256;28;20025;-65
2022/12/11 07:14:22;;;;;;;20.35;11.30;;;2.80;86.50;;;;;;5045076;28;20052;-66
2022/12/11 07:16:48;;;;;;;28.13;16.13;;;2.90;86.50;;;;;;5043416;28;20098;-66
2022/12/11 07:19:14;;;;;;;24.52;13.75;;;2.90;86.40;;;;;;5048748;28;20040;-66
2022/12/11 07:21:40;;;;;;;27.27;14.95;;;2.90;86.40;;;;;;5045880;28;20024;-65
2022/12/11 07:24:06;;;;;;;23.83;14.05;;;3.00;86.50;;;;;;5040345;28;20044;-65
2022/12/11 07:26:32;;;;;;;27.25;13.85;;;3.00;86.40;;;;;;5036919;28;20055;-65
2022/12/11 07:28:58;;;;;;;24.02;13.60;;;3.10;86.50;;;;;;5045047;28;20589;-66
2022/12/11 07:31:28;;;;;;;30.10;17.42;;;3.10;86.40;;;;;;5045343;28;20065;-66
2022/12/11 07:34:03;;;;;;;26.80;15.45;;;3.10;86.20;;;;;;5048435;28;20025;-66
2022/12/11 07:36:30;;;;;;;27.05;15.30;;;3.10;86.30;;;;;;5039730;28;20124;-66
2022/12/11 07:38:55;;;;;;;27.20;16.55;;;3.10;86.20;;;;;;5042734;28;20032;-65
2022/12/11 07:41:22;;;;;;;28.52;16.65;;;3.10;86.10;;;;;;5043235;28;20025;-65
2022/12/11 07:43:48;;;;;;;35.95;18.98;;;3.00;86.00;;;;;;5038628;28;20064;-65
2022/12/11 07:46:17;;;;;;;26.15;15.30;;;2.90;85.80;;;;;;5035784;28;20449;-65
2022/12/11 07:48:45;;;;;;;25.25;14.70;;;2.90;86.00;;;;;;5043294;28;20021;-64
2022/12/11 07:51:16;;;;;;;19.23;10.85;;;2.90;86.10;;;;;;5037668;28;20057;-65
2022/12/11 07:53:46;;;;;;;22.13;13.07;;;2.90;86.10;;;;;;5032232;28;20377;-65
2022/12/11 07:56:12;;;;;;;25.92;16.10;;;2.90;86.10;;;;;;5030120;28;20049;-66
2022/12/11 07:58:38;;;;;;;25.27;15.27;;;2.80;85.80;;;;;;5034487;28;20024;-67
2022/12/11 08:01:05;;;;;;;35.75;20.77;;;2.80;85.80;;;;;;5045532;28;20087;-66
2022/12/11 08:03:31;;;;;;;25.55;15.57;;;2.70;85.60;;;;;;5048108;28;20561;-67
2022/12/11 08:05:56;;;;;;;22.42;13.25;;;2.60;85.70;;;;;;5047023;28;20021;-66
2022/12/11 08:08:22;;;;;;;24.98;14.57;;;2.70;85.80;;;;;;5043243;28;20056;-66
2022/12/11 08:10:47;;;;;;;27.80;16.25;;;2.80;85.80;;;;;;5037921;28;20044;-66
2022/12/11 08:13:13;;;;;;;24.35;15.10;;;2.70;85.60;;;;;;5035887;28;20087;-66
2022/12/11 08:15:38;;;;;;;25.17;15.13;;;2.70;85.70;;;;;;5046149;28;20023;-66
2022/12/11 08:18:04;;;;;;;25.98;15.02;;;2.70;85.50;;;;;;5045969;28;20017;-66
2022/12/11 08:20:30;;;;;;;22.15;13.23;;;2.70;85.60;;;;;;5036421;28;20021;-66
2022/12/11 08:22:56;;;;;;;25.83;16.17;;;2.80;85.70;;;;;;5038727;28;20041;-67
2022/12/11 08:25:22;;;;;;;21.92;13.02;;;2.70;85.50;;;;;;5040851;28;20032;-67
2022/12/11 08:27:48;;;;;;;22.15;13.10;;;2.70;85.50;;;;;;5037146;28;20025;-67
2022/12/11 08:30:14;;;;;;;19.40;11.02;;;2.80;85.60;;;;;;5046034;28;20731;-67
2022/12/11 08:32:40;;;;;;;20.33;12.00;;;2.80;85.60;;;;;;5043402;28;20021;-67
2022/12/11 08:35:06;;;;;;;18.45;10.98;;;2.80;85.60;;;;;;5043905;28;20517;-67
2022/12/11 08:37:33;;;;;;;21.42;13.20;;;2.80;85.60;;;;;;5048804;28;20075;-66
2022/12/11 08:39:58;;;;;;;18.10;11.38;;;2.80;85.60;;;;;;5039817;28;20028;-66
2022/12/11 08:42:24;;;;;;;19.67;11.02;;;2.80;85.60;;;;;;5040580;28;20055;-65
2022/12/11 08:44:50;;;;;;;17.45;10.07;;;2.80;85.50;;;;;;5042695;28;20151;-66
2022/12/11 08:47:16;;;;;;;17.42;10.23;;;2.80;85.60;;;;;;5043483;28;20098;-66
2022/12/11 08:49:42;;;;;;;19.13;12.27;;;2.80;85.60;;;;;;5043422;28;20078;-66
2022/12/11 08:52:07;;;;;;;18.65;11.98;;;2.80;85.60;;;;;;5050589;28;20028;-66
2022/12/11 08:54:33;;;;;;;20.55;12.38;;;2.80;85.50;;;;;;5051553;28;20024;-66
2022/12/11 08:56:58;;;;;;;20.77;12.02;;;2.80;85.40;;;;;;5044806;28;20020;-66
2022/12/11 08:59:24;;;;;;;19.52;12.20;;;2.80;85.40;;;;;;5042508;28;20384;-67
2022/12/11 09:01:50;;;;;;;20.73;13.20;;;2.80;85.30;;;;;;5048408;28;20608;-64
2022/12/11 09:04:16;;;;;;;18.10;11.25;;;2.80;85.30;;;;;;5041583;28;20037;-64
2022/12/11 09:06:42;;;;;;;14.07;8.85;;;2.80;85.40;;;;;;5041782;28;20039;-65
2022/12/11 09:09:07;;;;;;;18.35;11.43;;;2.90;85.40;;;;;;5043886;28;20087;-65
2022/12/11 09:11:35;;;;;;;15.48;10.05;;;2.90;85.30;;;;;;5051561;28;20020;-64
2022/12/11 09:14:01;;;;;;;17.83;11.23;;;3.00;85.30;;;;;;5047090;28;20120;-64
2022/12/11 09:16:27;;;;;;;17.40;10.98;;;3.00;85.20;;;;;;5048939;28;20113;-67
2022/12/11 09:18:56;;;;;;;19.10;11.45;;;3.00;85.10;;;;;;5042933;28;20024;-67
2022/12/11 09:21:25;;;;;;;16.50;10.55;;;3.00;85.00;;;;;;5046661;28;20037;-64
2022/12/11 09:23:56;;;;;;;17.50;10.93;;;3.00;84.90;;;;;;5050886;28;20454;-64
2022/12/11 09:26:23;;;;;;;21.95;13.30;;;3.10;84.90;;;;;;5039916;28;20021;-67
2022/12/11 09:28:52;;;;;;;19.98;12.50;;;3.00;84.60;;;;;;5047709;28;20024;-67
2022/12/11 09:31:23;;;;;;;20.92;13.10;;;3.10;84.70;;;;;;5048435;28;20438;-64
2022/12/11 09:33:50;;;;;;;22.17;14.02;;;3.00;84.50;;;;;;5042399;28;20068;-64
2022/12/11 09:36:17;;;;;;;19.83;12.30;;;3.00;84.50;;;;;;5041635;28;20026;-64
2022/12/11 09:38:42;;;;;;;20.42;12.63;;;3.00;84.40;;;;;;5040360;28;20387;-64
2022/12/11 09:41:34;;;;;;;18.45;11.20;;;3.10;84.50;;;;;;5046776;28;20032;-66
2022/12/11 09:44:15;;;;;;;17.45;11.38;;;3.10;84.50;;;;;;5041952;28;20387;-67
2022/12/11 09:46:42;;;;;;;21.25;12.77;;;3.10;84.50;;;;;;5037111;28;20037;-64
2022/12/11 09:49:33;;;;;;;19.33;12.60;;;3.00;84.20;;;;;;5045698;28;20561;-67
2022/12/11 09:52:18;;;;;;;21.17;13.40;;;3.00;84.30;;;;;;5039210;28;20513;-67
2022/12/11 09:54:51;;;;;;;19.83;12.63;;;3.00;84.30;;;;;;5042808;28;20096;-67
2022/12/11 09:57:48;;;;;;;20.75;12.63;;;3.00;84.40;;;;;;5036198;28;20083;-64
2022/12/11 10:00:26;;;;;;;19.80;12.48;;;2.90;84.60;;;;;;5041170;28;20029;-64
2022/12/11 10:03:19;;;;;;;22.35;13.30;;;3.00;84.60;;;;;;5039804;28;20083;-64
2022/12/11 10:06:05;;;;;;;17.85;11.50;;;3.00;84.50;;;;;;5040068;28;20021;-64
2022/12/11 10:08:34;;;;;;;18.10;11.13;;;3.00;84.50;;;;;;5039853;28;20119;-64
2022/12/11 10:11:19;;;;;;;17.92;11.35;;;3.00;84.40;;;;;;5044323;28;20154;-65
2022/12/11 10:13:58;;;;;;;19.23;11.90;;;3.00;84.40;;;;;;5037910;28;20021;-64
2022/12/11 10:16:44;;;;;;;20.75;13.40;;;3.10;84.40;;;;;;5038605;28;20029;-64
2022/12/11 10:19:20;;;;;;;21.13;12.55;;;3.00;84.30;;;;;;5043461;28;20029;-65
2022/12/11 10:21:49;;;;;;;20.95;12.40;;;3.00;84.10;;;;;;5036180;28;20041;-64
2022/12/11 10:24:38;;;;;;;20.27;12.43;;;2.90;83.80;;;;;;5039688;28;20547;-64
2022/12/11 10:27:18;;;;;;;21.15;12.40;;;3.00;84.00;;;;;;5041007;28;20033;-65
2022/12/11 10:29:45;;;;;;;20.25;12.25;;;3.00;83.90;;;;;;5043378;28;20390;-65
2022/12/11 10:32:37;;;;;;;20.13;12.32;;;3.00;83.80;;;;;;5037907;28;20033;-65
2022/12/11 10:35:05;;;;;;;20.00;12.60;;;3.10;84.00;;;;;;5038049;28;20028;-65
2022/12/11 10:37:31;;;;;;;18.90;12.20;;;3.10;84.00;;;;;;5040920;28;20017;-65
2022/12/11 10:39:56;;;;;;;20.63;12.48;;;3.20;84.00;;;;;;5036516;28;20620;-65
2022/12/11 10:42:22;;;;;;;19.98;12.68;;;3.30;84.10;;;;;;5038210;28;20087;-66
2022/12/11 10:45:00;;;;;;;20.42;13.38;;;3.30;83.90;;;;;;5037328;28;20037;-66
2022/12/11 10:47:26;;;;;;;18.67;11.52;;;3.20;83.70;;;;;;5034860;28;20025;-66
2022/12/11 10:49:57;;;;;;;20.75;11.95;;;3.30;83.80;;;;;;5041917;28;20056;-65
2022/12/11 10:52:26;;;;;;;23.85;13.32;;;3.40;83.70;;;;;;5037227;28;20585;-65
2022/12/11 10:55:02;;;;;;;19.42;12.15;;;3.30;83.40;;;;;;5040102;28;20592;-65
2022/12/11 10:57:38;;;;;;;22.17;13.50;;;3.40;83.60;;;;;;5043815;28;20415;-65
2022/12/11 11:00:07;;;;;;;18.10;11.35;;;3.40;83.40;;;;;;5042850;28;20029;-65
2022/12/11 11:02:40;;;;;;;19.35;11.90;;;3.40;83.40;;;;;;5041486;28;20034;-65
2022/12/11 11:05:27;;;;;;;17.58;10.40;;;3.40;83.40;;;;;;5039341;28;20484;-65
2022/12/11 11:08:18;;;;;;;19.35;12.07;;;3.50;83.50;;;;;;5041461;28;20053;-66
2022/12/11 11:10:59;;;;;;;20.17;12.85;;;3.50;83.40;;;;;;5037182;28;20033;-65
2022/12/11 11:13:28;;;;;;;23.00;15.10;;;3.50;83.40;;;;;;5039079;28;20025;-66
2022/12/11 11:16:06;;;;;;;82.05;49.00;;;3.50;83.30;;;;;;5040824;28;20066;-65
2022/12/11 11:18:33;;;;;;;45.58;26.95;;;3.50;83.30;;;;;;5036008;28;20664;-64
2022/12/11 11:21:00;;;;;;;36.78;23.90;;;3.50;83.40;;;;;;5040828;28;20018;-65
2022/12/11 11:23:26;;;;;;;32.58;20.33;;;3.50;83.30;;;;;;5039227;28;20446;-65
2022/12/11 11:25:58;;;;;;;28.77;16.77;;;3.40;83.30;;;;;;5039511;28;20116;-65
2022/12/11 11:28:48;;;;;;;29.65;21.17;;;3.40;83.40;;;;;;5039930;28;20025;-66
2022/12/11 11:31:15;;;;;;;23.90;16.40;;;3.40;83.20;;;;;;5042473;28;20631;-66
2022/12/11 11:33:56;;;;;;;21.45;14.38;;;3.40;83.30;;;;;;5037967;28;20079;-66
2022/12/11 11:36:27;;;;;;;19.08;12.50;;;3.40;83.30;;;;;;5042608;28;20123;-65
2022/12/11 11:39:18;;;;;;;22.02;14.07;;;3.50;83.30;;;;;;5037325;28;20075;-66
2022/12/11 11:42:09;;;;;;;25.65;18.48;;;3.50;83.20;;;;;;5039357;28;20140;-66
2022/12/11 11:44:43;;;;;;;24.67;16.90;;;3.60;83.30;;;;;;5040108;28;20399;-66
2022/12/11 11:47:32;;;;;;;23.77;15.75;;;3.50;83.20;;;;;;5048120;28;20032;-66
2022/12/11 11:50:12;;;;;;;29.45;20.15;;;3.50;83.20;;;;;;5042587;28;20025;-66
2022/12/11 11:52:57;;;;;;;27.98;18.17;;;3.50;83.10;;;;;;5035450;28;20025;-66
2022/12/11 11:55:41;;;;;;;31.55;22.13;;;3.40;82.80;;;;;;5041398;28;20471;-66
2022/12/11 11:58:13;;;;;;;28.00;20.55;;;3.40;83.00;;;;;;5034870;28;20112;-65
2022/12/11 12:00:39;;;;;;;25.90;17.92;;;3.30;83.00;;;;;;5037844;28;20375;-65
2022/12/11 12:03:12;;;;;;;27.42;18.90;;;3.30;83.00;;;;;;5040518;28;20021;-67
2022/12/11 12:05:56;;;;;;;25.50;17.25;;;3.30;83.00;;;;;;5039897;28;20113;-65
2022/12/11 12:09:05;;;;;;;25.48;15.77;;;3.30;83.10;;;;;;5040063;28;20033;-66
2022/12/11 12:11:39;;;;;;;24.75;15.38;;;3.30;83.10;;;;;;5044126;28;20028;-66
2022/12/11 12:14:32;;;;;;;25.15;16.48;;;3.40;83.20;;;;;;5046193;28;20024;-65
2022/12/11 12:17:11;;;;;;;25.23;16.85;;;3.30;83.20;;;;;;5039339;28;20386;-66
2022/12/11 12:19:47;;;;;;;21.90;14.98;;;3.40;83.20;;;;;;5045947;28;20032;-67
2022/12/11 12:22:31;;;;;;;27.27;16.48;;;3.40;83.20;;;;;;5041749;28;20057;-65
2022/12/11 12:25:20;;;;;;;24.77;15.48;;;3.40;83.10;;;;;;5047380;28;20368;-66
2022/12/11 12:28:04;;;;;;;28.42;18.20;;;3.40;83.10;;;;;;5038032;28;20032;-64
2022/12/11 12:30:54;;;;;;;27.73;18.85;;;3.40;83.10;;;;;;5045337;28;20787;-67
2022/12/11 12:34:00;;;;;;;26.50;16.83;;;3.40;83.10;;;;;;5047101;28;20056;-66
2022/12/11 12:36:44;;;;;;;22.48;14.68;;;3.30;83.10;;;;;;5039463;28;20074;-66
2022/12/11 12:39:28;;;;;;;26.02;16.13;;;3.30;83.20;;;;;;5044930;28;20034;-67
2022/12/11 12:42:31;;;;;;;24.75;15.13;;;3.30;83.20;;;;;;5040847;28;20063;-66
2022/12/11 12:45:14;;;;;;;22.02;14.40;;;3.20;83.30;;;;;;5035818;28;20045;-67
2022/12/11 12:47:45;;;;;;;30.95;17.83;;;3.30;83.50;;;;;;5040451;28;20395;-66
2022/12/11 12:50:16;;;;;;;23.70;14.57;;;3.20;83.30;;;;;;5044937;28;20040;-66
2022/12/11 12:52:42;;;;;;;27.00;16.70;;;3.20;83.30;;;;;;5041106;28;20091;-65
2022/12/11 12:55:30;;;;;;;24.02;14.50;;;3.10;83.40;;;;;;5046481;28;20064;-64
2022/12/11 12:58:01;;;;;;;24.15;14.82;;;3.10;83.60;;;;;;5043876;28;20048;-65
2022/12/11 13:00:36;;;;;;;24.75;15.57;;;3.20;83.60;;;;;;5039793;28;20072;-65
2022/12/11 13:03:16;;;;;;;25.95;16.98;;;3.20;83.60;;;;;;5047903;28;20024;-63